Tiempo atmosférico en la estación meteorológica de Esterri d?Àneu, Lleida (940 m.)



Fecha
DESCASC
Temp. máxima en grados centígrados (hora)
DESCASC
Temp. mínima en grados centígrados (hora)
DESCASC
Temp. media en grados centígrados
DESCASC
Racha de viento máxima en m/sg (hora)
DESCASC
Velocidad máxima media en intervalos de 10 minutos(hora)
DESCASC
Precipitaciones diarias en mm
DESCASC
Precipitaciones de 00:00 a 06:00 en mm
DESCASC
Precipitaciones de 06:00 a 12:00 en mm
DESCASC
Precipitaciones de 12:00 a 18:00 en mm
DESCASC
Precipitaciones de 18:00 a 24:00 en mm
DESCASC

Gráficas

Temp. máximas Temp. mínimas Temp. medias Precipitaciones Rachas de viento máximas Velocidades máximas media en intervalos de 10 minutos

Datos horarios

Fecha y hora oficial Temperatura (ºC) Velocidad del viento (km/h) Dirección del viento Racha (km/h) Dirección de racha Precipitación (mm) Presión (hPa) Tendencia (hPa) Humedad (%)
2020-07-10 23:00:00 16.3 0 Calma 5 Sur 0 -- -- 94
2020-07-10 22:00:00 16.7 0 Calma 6 Sudoeste 0 -- -- 94
2020-07-10 21:00:00 17.3 2 Noroeste 5 Norte 0.6 -- -- 93
2020-07-10 20:00:00 17.4 2 Este 16 Nordeste 1.4 -- -- 90
2020-07-10 19:00:00 17.7 8 Nordeste 32 Nordeste 5.6 -- -- 83
2020-07-10 18:00:00 23 9 Este 23 Sudeste 0 -- -- 49
2020-07-10 17:00:00 23.6 7 Sur 33 Sudeste 0 -- -- 62
2020-07-10 16:00:00 29.1 13 Sur 26 Sur 0 -- -- 37
2020-07-10 15:00:00 29.4 8 Sudoeste 22 Sur 0 -- -- 33
2020-07-10 14:00:00 29.1 10 Sur 27 Sur 0 -- -- 32
2020-07-10 13:00:00 28 15 Sur 30 Sur 0 -- -- 36
2020-07-10 12:00:00 23.5 4 Sur 8 Sudoeste 0 -- -- 61
2020-07-10 11:00:00 20.7 3 Sudeste 5 Sudeste 0 -- -- 68
2020-07-10 10:00:00 17.8 3 Norte 9 Este 0 -- -- 78
2020-07-10 09:00:00 14.6 2 Norte 8 Sudoeste 0 -- -- 98
2020-07-10 08:00:00 12.8 0 Calma 6 Sur 0 -- -- 100
2020-07-10 07:00:00 12.1 0 Calma 5 Sur 0.2 -- -- 99
2020-07-10 06:00:00 12.8 0 Calma 2 Sur 0 -- -- 94
2020-07-10 05:00:00 13.3 0 Calma 4 Sur 0 -- -- 92
2020-07-10 04:00:00 14.2 0 Calma 7 Sudeste 0 -- -- 90
2020-07-10 03:00:00 14.3 0 Calma 7 Noroeste 0 -- -- 91
2020-07-10 02:00:00 14.9 2 Sudoeste 5 Norte 0 -- -- 90
2020-07-10 01:00:00 15.6 0 Calma 7 Sur 0 -- -- 88
2020-07-10 00:00:00 16.9 3 Norte 9 Noroeste 0 -- -- 83
2020-07-09 23:00:00 18.4 3 Norte 25 Este 0 -- -- 77
2020-07-09 22:00:00 18.8 6 Nordeste 18 Nordeste 7.2 -- -- 73
2020-07-09 21:00:00 23.7 5 Sudoeste 12 Noroeste 0 -- -- 46
2020-07-09 20:00:00 24.4 2 Sudeste 8 Este 0 -- -- 56
2020-07-09 19:00:00 26.5 5 Oeste 13 Sudeste 0 -- -- 48
2020-07-09 18:00:00 27.2 4 Norte 24 Norte 0 -- -- 38
2020-07-09 17:00:00 27.9 9 Norte 32 Norte 0 -- -- 41
2020-07-09 16:00:00 30.2 9 Sur 27 Sur 0.2 -- -- 38
2020-07-09 15:00:00 28.7 7 Sur 19 Sur 0 -- -- 48
2020-07-09 14:00:00 29.8 9 Sur 18 Sur 0 -- -- 42
2020-07-09 13:00:00 27.3 3 Sudoeste 11 Sudeste 0 -- -- 50
2020-07-09 12:00:00 24.9 4 Este 9 Sudeste 0 -- -- 56
2020-07-09 11:00:00 22.9 3 Nordeste 8 Sudoeste 0 -- -- 63
2020-07-09 10:00:00 20.4 2 Este 7 Sur 0 -- -- 71
2020-07-09 09:00:00 17.3 4 Sur 6 Sur 0 -- -- 89
2020-07-09 08:00:00 14.8 0 Calma 6 Sur 0 -- -- 98
2020-07-09 07:00:00 14.4 3 Sur 5 Sur 0 -- -- 98
2020-07-09 06:00:00 14.8 0 Calma 4 Sudeste 0 -- -- 88
2020-07-09 05:00:00 15.1 0 Calma 5 Noroeste 0 -- -- 87
2020-07-09 04:00:00 16.2 0 Calma 7 Sur 0 -- -- 84
2020-07-09 03:00:00 17.1 0 Calma 4 Sur 0 -- -- 80
2020-07-09 02:00:00 18.1 0 Calma 12 Norte 0 -- -- 76
2020-07-09 01:00:00 20.5 5 Norte 11 Norte 0 -- -- 64
2020-07-09 00:00:00 21.5 5 Norte 13 Nordeste 0 -- -- 60
2020-07-08 23:00:00 22.2 3 Nordeste 13 Norte 0 -- -- 58
2020-07-08 22:00:00 23.6 4 Noroeste 9 Sudoeste 0 -- -- 55
2020-07-08 21:00:00 25.9 3 Norte 7 Noroeste 0 -- -- 52
2020-07-08 20:00:00 29.9 4 Sudeste 13 Noroeste 0 -- -- 41
2020-07-08 19:00:00 31.3 5 Norte 12 Norte 0 -- -- 32
2020-07-08 18:00:00 30.5 6 Sur 11 Sudeste 0 -- -- 41
2020-07-08 17:00:00 29.3 6 Sur 21 Sur 0 -- -- 44
2020-07-08 16:00:00 29.3 8 Sur 22 Sur 0 -- -- 46
2020-07-08 15:00:00 28.9 9 Sur 21 Sur 0 -- -- 45
2020-07-08 14:00:00 28.4 6 Sur 15 Sur 0 -- -- 45
2020-07-08 13:00:00 25.4 3 Este 10 Este 0 -- -- 51
2020-07-08 12:00:00 22.6 3 Sur 8 Sur 0 -- -- 61
2020-07-08 11:00:00 20.4 3 Sudeste 6 Sudeste 0 -- -- 68
2020-07-08 10:00:00 17.4 3 Sudeste 6 Este 0 -- -- 76
2020-07-08 09:00:00 11.6 0 Calma 2 Sudeste 0 -- -- 100
2020-07-08 08:00:00 10.9 0 Calma 3 Sur 0 -- -- 99
2020-07-08 07:00:00 11.2 0 Calma 2 Sur 0 -- -- 98
2020-07-08 06:00:00 12 0 Calma 3 Sur 0 -- -- 92
2020-07-08 05:00:00 12.9 0 Calma 4 Sur 0 -- -- 90
2020-07-08 04:00:00 13.8 0 Calma 3 Sudeste 0 -- -- 88
2020-07-08 03:00:00 14.6 0 Calma 2 Sur 0 -- -- 86
2020-07-08 02:00:00 15.8 0 Calma 4 Sur 0 -- -- 82
2020-07-08 01:00:00 16.8 0 Calma 4 Oeste 0 -- -- 78
2020-07-08 00:00:00 18.3 0 Calma 4 Sudeste 0 -- -- 71
2020-07-07 23:00:00 20.4 2 Sur 8 Oeste 0 -- -- 65
2020-07-07 22:00:00 23.2 4 Noroeste 10 Norte 0 -- -- 50
2020-07-07 21:00:00 26.2 3 Nordeste 10 Sur 0 -- -- 43
2020-07-07 20:00:00 28.6 3 Oeste 15 Norte 0 -- -- 42
2020-07-07 19:00:00 31 5 Sur 13 Norte 0 -- -- 30
2020-07-07 18:00:00 31.5 6 Noroeste 20 Norte 0 -- -- 23
2020-07-07 17:00:00 31.6 10 Norte 25 Noroeste 0 -- -- 21
2020-07-07 16:00:00 31.3 14 Norte 26 Norte 0 -- -- 18
2020-07-07 15:00:00 30.8 11 Norte 22 Noroeste 0 -- -- 17
2020-07-07 14:00:00 29.4 9 Noroeste 18 Noroeste 0 -- -- 16
2020-07-07 13:00:00 26.2 5 Sur 9 Sur 0 -- -- 31
2020-07-07 12:00:00 22.5 3 Sur 8 Sur 0 -- -- 38
2020-07-07 11:00:00 18.7 2 Sur 6 Sur 0 -- -- 49
2020-07-07 10:00:00 15.6 0 Calma 5 Sudeste 0 -- -- 61
2020-07-07 09:00:00 9.6 0 Calma 3 Sudeste 0 -- -- 93
2020-07-07 08:00:00 9 0 Calma 5 Sur 0 -- -- 94
2020-07-07 07:00:00 9.6 0 Calma 6 Sudeste 0 -- -- 95
2020-07-07 06:00:00 11.5 3 Nordeste 9 Sudeste 0 -- -- 77
2020-07-07 05:00:00 12.5 2 Sudoeste 6 Sudeste 0 -- -- 74
2020-07-07 04:00:00 13.8 2 Este 6 Oeste 0 -- -- 69
2020-07-07 03:00:00 14.7 0 Calma 8 Sudeste 0 -- -- 68
2020-07-07 02:00:00 17.3 4 Noroeste 11 Nordeste 0 -- -- 58
2020-07-07 01:00:00 16.9 3 Sudeste 10 Norte 0 -- -- 59
2020-07-07 00:00:00 18.6 3 Nordeste 15 Oeste 0 -- -- 56
2020-07-06 23:00:00 20.1 6 Norte 24 Norte 0 -- -- 52
2020-07-06 22:00:00 21.1 9 Norte 30 Noroeste 0 -- -- 51
2020-07-06 21:00:00 22.4 14 Noroeste 29 Noroeste 0 -- -- 48
2020-07-06 20:00:00 24.9 12 Noroeste 32 Norte 0 -- -- 42
2020-07-06 19:00:00 26 17 Norte 39 Norte 0 -- -- 40
2020-07-06 18:00:00 27.2 18 Noroeste 41 Norte 0 -- -- 37
2020-07-06 17:00:00 28.8 13 Noroeste 31 Noroeste 0 -- -- 34
2020-07-06 16:00:00 29.5 14 Norte 32 Noroeste 0 -- -- 30
2020-07-06 15:00:00 29.2 12 Norte 30 Norte 0 -- -- 32
2020-07-06 14:00:00 29.2 9 Noroeste 25 Norte 0 -- -- 32
2020-07-06 13:00:00 28.1 13 Norte 28 Norte 0 -- -- 30
2020-07-06 12:00:00 24.3 3 Sur 7 Sur 0 -- -- 49
2020-07-06 11:00:00 20.7 3 Sudeste 6 Sudeste 0 -- -- 58
2020-07-06 10:00:00 17.5 2 Sudeste 4 Este 0 -- -- 70
2020-07-06 09:00:00 11.2 0 Calma 3 Sur 0 -- -- 99
2020-07-06 08:00:00 10.5 0 Calma 3 Sudoeste 0 -- -- 99
2020-07-06 07:00:00 11 0 Calma 3 Sur 0 -- -- 98
2020-07-06 06:00:00 12.3 0 Calma 3 Oeste 0 -- -- 87
2020-07-06 05:00:00 13.4 0 Calma 3 Sur 0 -- -- 84
2020-07-06 04:00:00 14.7 0 Calma 3 Sur 0 -- -- 78
2020-07-06 03:00:00 16.4 0 Calma 4 Noroeste 0 -- -- 71
2020-07-06 02:00:00 17.4 0 Calma 5 Oeste 0 -- -- 68
2020-07-06 01:00:00 19.2 0 Calma 13 Norte 0 -- -- 61
2020-07-06 00:00:00 21.4 4 Nordeste 13 Norte 0 -- -- 56
2020-07-05 23:00:00 22.2 7 Norte 24 Norte 0 -- -- 53
2020-07-05 22:00:00 23.1 5 Nordeste 23 Norte 0 -- -- 50
2020-07-05 21:00:00 24.4 8 Norte 28 Norte 0 -- -- 46
2020-07-05 20:00:00 27.5 12 Noroeste 28 Noroeste 0 -- -- 38
2020-07-05 19:00:00 29.5 12 Noroeste 25 Noroeste 0 -- -- 30
2020-07-05 18:00:00 31.1 9 Noroeste 24 Noroeste 0 -- -- 18
2020-07-05 17:00:00 30.8 11 Noroeste 24 Norte 0 -- -- 31
2020-07-05 16:00:00 30.7 8 Norte 24 Norte 0 -- -- 31
2020-07-05 15:00:00 30.3 8 Norte 28 Oeste 0 -- -- 32
2020-07-05 14:00:00 29.4 9 Noroeste 22 Oeste 0 -- -- 33
2020-07-05 13:00:00 26.3 6 Sur 11 Sudeste 0 -- -- 42
2020-07-05 12:00:00 23.2 5 Sur 8 Sudeste 0 -- -- 47
2020-07-05 11:00:00 20.3 3 Sur 5 Sur 0 -- -- 53
2020-07-05 10:00:00 16 0 Calma 4 Sudeste 0 -- -- 64
2020-07-05 09:00:00 9.8 0 Calma 4 Sur 0 -- -- 96
2020-07-05 08:00:00 8.9 0 Calma 5 Sudeste 0 -- -- 98
2020-07-05 07:00:00 8.7 0 Calma 5 Sur 0 -- -- 98
2020-07-05 06:00:00 10.1 0 Calma 3 Sudeste 0 -- -- 85
2020-07-05 05:00:00 10.6 0 Calma 4 Sudoeste 0 -- -- 81
2020-07-05 04:00:00 11.9 0 Calma 4 Sur 0 -- -- 77
2020-07-05 03:00:00 12.5 0 Calma 4 Sur 0 -- -- 73
2020-07-05 02:00:00 14.3 0 Calma 5 Norte 0 -- -- 65
2020-07-05 01:00:00 16.2 3 Sudeste 8 Nordeste 0 -- -- 56
2020-07-05 00:00:00 18.1 2 Norte 13 Norte 0 -- -- 45
2020-07-04 23:00:00 20.2 5 Nordeste 12 Nordeste 0 -- -- 37
2020-07-04 22:00:00 21.7 5 Nordeste 12 Nordeste 0 -- -- 33
2020-07-04 21:00:00 24 6 Norte 21 Noroeste 0 -- -- 35
2020-07-04 20:00:00 26.8 10 Norte 22 Noroeste 0 -- -- 27
2020-07-04 19:00:00 28.3 10 Noroeste 29 Noroeste 0 -- -- 23
2020-07-04 18:00:00 29 12 Noroeste 31 Norte 0 -- -- 21
2020-07-04 17:00:00 29.7 12 Norte 32 Norte 0 -- -- 19
2020-07-04 16:00:00 29.8 11 Norte 23 Norte 0 -- -- 17
2020-07-04 15:00:00 27.3 5 Sur 12 Sur 0 -- -- 32
2020-07-04 14:00:00 24.6 3 Oeste 9 Sudeste 0 -- -- 30
2020-07-04 13:00:00 22.1 4 Sur 10 Sur 0 -- -- 34
2020-07-04 12:00:00 18.8 5 Sur 9 Sur 0 -- -- 34
2020-07-04 11:00:00 15.5 3 Sur 6 Sur 0 -- -- 52
2020-07-04 10:00:00 11.9 0 Calma 5 Este 0 -- -- 66
2020-07-04 09:00:00 5.7 0 Calma 2 Sur 0 -- -- 100
2020-07-04 08:00:00 4.9 0 Calma 3 Sur 0 -- -- 99
2020-07-04 07:00:00 5.3 0 Calma 3 Sur 0 -- -- 98
2020-07-04 06:00:00 6.3 0 Calma 3 Sur 0 -- -- 90
2020-07-04 05:00:00 7.1 0 Calma 3 Sudoeste 0 -- -- 88
2020-07-04 04:00:00 8.1 0 Calma 4 Sur 0 -- -- 86
2020-07-04 03:00:00 9.1 2 Sur 3 Sur 0 -- -- 81
2020-07-04 02:00:00 10.9 0 Calma 5 Sudeste 0 -- -- 73
2020-07-04 01:00:00 11.9 0 Calma 5 Sudeste 0 -- -- 71
2020-07-04 00:00:00 14.4 3 Sur 10 Nordeste 0 -- -- 63
2020-07-03 23:00:00 16.3 4 Nordeste 25 Norte 0 -- -- 55
2020-07-03 22:00:00 17.5 9 Norte 28 Noroeste 0 -- -- 49
2020-07-03 21:00:00 19.2 9 Norte 27 Nordeste 0 -- -- 46
2020-07-03 20:00:00 22 12 Noroeste 29 Noroeste 0 -- -- 40
2020-07-03 19:00:00 23.4 12 Noroeste 31 Noroeste 0 -- -- 35
2020-07-03 18:00:00 24.4 13 Norte 32 Norte 0 -- -- 32
2020-07-03 17:00:00 25.3 15 Norte 32 Noroeste 0 -- -- 28
2020-07-03 16:00:00 25.3 12 Noroeste 28 Norte 0 -- -- 26
2020-07-03 15:00:00 24.5 13 Noroeste 25 Norte 0 -- -- 30
2020-07-03 14:00:00 23.4 8 Norte 18 Noroeste 0 -- -- 35
2020-07-03 13:00:00 21.9 6 Norte 17 Noroeste 0 -- -- 44
2020-07-03 12:00:00 20.6 9 Noroeste 21 Norte 0 -- -- 48
2020-07-03 11:00:00 18.9 6 Noroeste 19 Noroeste 0 -- -- 55
2020-07-03 10:00:00 16.8 5 Norte 15 Oeste 0 -- -- 62
2020-07-03 09:00:00 11.6 0 Calma 5 Sudeste 0 -- -- 99
2020-07-03 08:00:00 11.4 2 Sur 6 Oeste 0 -- -- 99
2020-07-03 07:00:00 12 0 Calma 5 Oeste 0.2 -- -- 98
2020-07-03 06:00:00 12.8 0 Calma 7 Oeste 0 -- -- 92
2020-07-03 05:00:00 13.5 0 Calma 4 Sudeste 0 -- -- 90
2020-07-03 04:00:00 14.2 2 Sudeste 10 Sudeste 0 -- -- 87
2020-07-03 03:00:00 15.2 2 Sur 10 Nordeste 0.2 -- -- 80
2020-07-03 02:00:00 15.9 3 Sudeste 18 Oeste 0 -- -- 76
2020-07-03 01:00:00 15.6 2 Este 9 Sudeste 0 -- -- 78
2020-07-03 00:00:00 16.5 3 Sudeste 17 Norte 0.6 -- -- 77
2020-07-02 23:00:00 17.9 10 Norte 28 Norte 0.4 -- -- 62
2020-07-02 22:00:00 19.5 7 Norte 22 Norte 0 -- -- 57
2020-07-02 21:00:00 20.2 5 Norte 22 Noroeste 0 -- -- 58
2020-07-02 20:00:00 22.7 9 Norte 30 Noroeste 0 -- -- 51
2020-07-02 19:00:00 23.2 5 Norte 9 Norte 0 -- -- 56
2020-07-02 18:00:00 21.3 3 Sudoeste 11 Norte 0 -- -- 67
2020-07-02 17:00:00 20.7 0 Calma 19 Nordeste 0.2 -- -- 66
2020-07-02 16:00:00 19 11 Nordeste 33 Norte 0.4 -- -- 76
2020-07-02 15:00:00 24.5 4 Sur 13 Sudoeste 0 -- -- 59
2020-07-02 14:00:00 22.9 6 Sur 19 Sur 0 -- -- 68
2020-07-02 13:00:00 21.7 4 Sudoeste 12 Sudeste 0 -- -- 78
2020-07-02 12:00:00 21.8 3 Sudeste 12 Sur 0.2 -- -- 75
2020-07-02 11:00:00 21.7 5 Sudeste 10 Sur 0 -- -- 67
2020-07-02 10:00:00 19.7 2 Sudeste 5 Sudeste 0 -- -- 74
2020-07-02 09:00:00 15.8 2 Sur 5 Sur 0 -- -- 93
2020-07-02 08:00:00 15 0 Calma 6 Sudoeste 0 -- -- 98
2020-07-02 07:00:00 14.2 2 Sur 6 Sur 0 -- -- 98
2020-07-02 06:00:00 14.7 0 Calma 4 Sudeste 0 -- -- 91
2020-07-02 05:00:00 15.2 0 Calma 3 Sur 0 -- -- 88
2020-07-02 04:00:00 15.8 0 Calma 5 Sudoeste 0 -- -- 86
2020-07-02 03:00:00 17.1 0 Calma 5 Norte 0 -- -- 81
2020-07-02 02:00:00 17.6 0 Calma 6 Sudeste 0 -- -- 78
2020-07-02 01:00:00 18.8 2 Norte 5 Norte 0 -- -- 75
2020-07-02 00:00:00 20.6 2 Nordeste 12 Nordeste 0 -- -- 69
2020-07-01 23:00:00 22.8 5 Nordeste 14 Norte 0 -- -- 59
2020-07-01 22:00:00 23.6 5 Nordeste 18 Norte 0 -- -- 58
2020-07-01 21:00:00 24.8 8 Norte 27 Norte 0 -- -- 52
2020-07-01 20:00:00 26.8 13 Norte 30 Nordeste 0 -- -- 47
2020-07-01 19:00:00 27.7 10 Nordeste 18 Sudeste 0 -- -- 44
2020-07-01 18:00:00 29.3 9 Sur 18 Sur 0 -- -- 37
2020-07-01 17:00:00 30 10 Sur 22 Sudeste 0 -- -- 39
2020-07-01 16:00:00 30.1 4 Sur 14 Sudeste 0 -- -- 35
2020-07-01 15:00:00 29.6 7 Sur 24 Sur 0 -- -- 38
2020-07-01 14:00:00 29 7 Sur 16 Sudoeste 0 -- -- 44
2020-07-01 13:00:00 26.1 3 Sur 9 Sudeste 0 -- -- 51
2020-07-01 12:00:00 24.5 5 Sudeste 9 Sur 0 -- -- 58
2020-07-01 11:00:00 22.1 3 Sudeste 6 Sur 0 -- -- 61
2020-07-01 10:00:00 19.2 2 Sudeste 6 Sudeste 0 -- -- 77
2020-07-01 09:00:00 14.9 0 Calma 5 Sur 0 -- -- 99
2020-07-01 08:00:00 14.4 0 Calma 5 Sur 0 -- -- 99
2020-07-01 07:00:00 14.5 2 Sur 5 Sur 0.2 -- -- 98
2020-07-01 06:00:00 15.9 2 Sudeste 6 Noroeste 0 -- -- 89
2020-07-01 05:00:00 17.3 2 Norte 9 Norte 0 -- -- 83
2020-07-01 04:00:00 18.4 5 Norte 18 Noroeste 0 -- -- 77
2020-07-01 03:00:00 19 3 Sur 12 Sudoeste 0 -- -- 85
2020-07-01 02:00:00 19.2 3 Sudeste 9 Norte 0 -- -- 84
2020-07-01 01:00:00 18.6 0 Calma 6 Sudoeste 0 -- -- 85
2020-07-01 00:00:00 19.4 0 Calma 5 Noroeste 0 -- -- 79
2020-06-30 23:00:00 21.7 3 Noroeste 10 Nordeste 0 -- -- 70
2020-06-30 22:00:00 23 3 Noroeste 8 Sudoeste 0 -- -- 67
2020-06-30 21:00:00 25.1 5 Norte 9 Nordeste 0 -- -- 60
2020-06-30 20:00:00 26.8 2 Sudeste 19 Sur 0 -- -- 56
2020-06-30 19:00:00 29 9 Sur 26 Sur 0 -- -- 50
2020-06-30 18:00:00 29.8 12 Sur 25 Sur 0 -- -- 48
2020-06-30 17:00:00 29.2 11 Sur 31 Sur 0 -- -- 47
2020-06-30 16:00:00 30.1 13 Sur 26 Sudeste 0 -- -- 47
2020-06-30 15:00:00 28.8 10 Sur 24 Sudoeste 0 -- -- 47
2020-06-30 14:00:00 28.2 11 Sur 28 Sur 0 -- -- 51
2020-06-30 13:00:00 27.1 6 Sudoeste 17 Sudeste 0 -- -- 55
2020-06-30 12:00:00 24.7 3 Sur 10 Sur 0 -- -- 67
2020-06-30 11:00:00 22.5 2 Noroeste 5 Este 0 -- -- 73
2020-06-30 10:00:00 20.3 2 Sudeste 5 Este 0 -- -- 78
2020-06-30 09:00:00 16 0 Calma 4 Sur 0.2 -- -- 99
2020-06-30 08:00:00 14.8 0 Calma 5 Sudoeste 0 -- -- 100
2020-06-30 07:00:00 13.8 0 Calma 4 Sudeste 0 -- -- 99
2020-06-30 06:00:00 14.5 0 Calma 4 Sudeste 0 -- -- 94
2020-06-30 05:00:00 15 0 Calma 5 Sudeste 0 -- -- 92
2020-06-30 04:00:00 15.3 0 Calma 5 Oeste 0 -- -- 92
2020-06-30 03:00:00 15.8 0 Calma 5 Sudoeste 0 -- -- 91
2020-06-30 02:00:00 16.6 0 Calma 6 Sudeste 0 -- -- 88
2020-06-30 01:00:00 17.9 0 Calma 7 Sudoeste 0 -- -- 84
2020-06-30 00:00:00 19.9 3 Norte 10 Este 0 -- -- 74
2020-06-29 23:00:00 21.3 4 Norte 10 Norte 0 -- -- 69
2020-06-29 22:00:00 22.6 5 Norte 10 Norte 0 -- -- 70
2020-06-29 21:00:00 25.1 2 Norte 7 Norte 0 -- -- 62
2020-06-29 20:00:00 26 3 Sur 9 Sur 0 -- -- 58
2020-06-29 19:00:00 26.6 5 Sur 18 Sudoeste 0 -- -- 55
2020-06-29 18:00:00 26.3 5 Sur 14 Sur 0 -- -- 58
2020-06-29 17:00:00 26.8 8 Sur 21 Sur 0 -- -- 55
2020-06-29 16:00:00 28 9 Sur 22 Sudeste 0 -- -- 52
2020-06-29 15:00:00 28.2 7 Sur 23 Sur 0 -- -- 51
2020-06-29 14:00:00 27.4 9 Sur 17 Sur 0 -- -- 54
2020-06-29 13:00:00 25.7 8 Sur 14 Sudoeste 0 -- -- 62
2020-06-29 12:00:00 22.6 4 Sur 8 Sudeste 0 -- -- 73
2020-06-29 11:00:00 20 3 Sur 6 Sudeste 0 -- -- 80
2020-06-29 10:00:00 18.6 0 Calma 4 Sur 0 -- -- 84
2020-06-29 09:00:00 16.3 0 Calma 5 Sur 0 -- -- 99
2020-06-29 08:00:00 15.3 0 Calma 6 Sudoeste 0 -- -- 100
2020-06-29 07:00:00 15 2 Noroeste 7 Este 0.2 -- -- 99
2020-06-29 06:00:00 15.4 0 Calma 6 Sudeste 0 -- -- 94
2020-06-29 05:00:00 14.9 0 Calma 6 Sur 0 -- -- 94
2020-06-29 04:00:00 14.4 3 Sur 5 Sur 0 -- -- 92
2020-06-29 03:00:00 15.1 2 Norte 4 Noroeste 0 -- -- 92
2020-06-29 02:00:00 16 0 Calma 5 Oeste 0 -- -- 88
2020-06-29 01:00:00 16.8 0 Calma 5 Noroeste 0 -- -- 85
2020-06-29 00:00:00 18.2 0 Calma 5 Noroeste 0 -- -- 80
2020-06-28 23:00:00 20.6 2 Norte 14 Norte 0 -- -- 71
2020-06-28 22:00:00 21.9 8 Nordeste 15 Nordeste 0 -- -- 66
2020-06-28 21:00:00 23.5 4 Norte 12 Nordeste 0 -- -- 62
2020-06-28 20:00:00 26.3 2 Este 10 Sudoeste 0 -- -- 54
2020-06-28 19:00:00 26.2 5 Sur 21 Sur 0 -- -- 53
2020-06-28 18:00:00 26.5 6 Sur 29 Sudeste 0 -- -- 51
2020-06-28 17:00:00 26.7 8 Sur 28 Sudeste 0 -- -- 51
2020-06-28 16:00:00 26.5 9 Sur 23 Sur 0 -- -- 51
2020-06-28 15:00:00 25.6 9 Sur 21 Sur 0 -- -- 52
2020-06-28 14:00:00 25.1 7 Sur 25 Sur 0 -- -- 57
2020-06-28 13:00:00 24 6 Sudoeste 17 Sudoeste 0 -- -- 62
2020-06-28 12:00:00 20.7 3 Sur 8 Sur 0 -- -- 72
2020-06-28 11:00:00 18.6 3 Sur 6 Sudeste 0 -- -- 79
2020-06-28 10:00:00 16.4 0 Calma 5 Sudeste 0 -- -- 88
2020-06-28 09:00:00 13.3 0 Calma 6 Este 0 -- -- 100
2020-06-28 08:00:00 12.6 0 Calma 5 Sur 0.2 -- -- 100
2020-06-28 07:00:00 12.6 0 Calma 5 Oeste 0 -- -- 99
2020-06-28 06:00:00 13.1 0 Calma 5 Sudeste 0 -- -- 94
2020-06-28 05:00:00 12.8 0 Calma 4 Sur 0 -- -- 95
2020-06-28 04:00:00 13.1 0 Calma 3 Sudeste 0 -- -- 93
2020-06-28 03:00:00 13.7 0 Calma 4 Sudeste 0 -- -- 92
2020-06-28 02:00:00 14.6 0 Calma 5 Sudeste 0 -- -- 89
2020-06-28 01:00:00 15.4 0 Calma 4 Sudoeste 0 -- -- 87
2020-06-28 00:00:00 16.5 0 Calma 5 Sur 0 -- -- 83
2020-06-27 23:00:00 18.3 2 Norte 4 Noroeste 0 -- -- 75
2020-06-27 22:00:00 20.6 2 Sur 13 Nordeste 0 -- -- 67
2020-06-27 21:00:00 22.5 5 Nordeste 14 Nordeste 0 -- -- 57
2020-06-27 20:00:00 23.7 8 Nordeste 21 Nordeste 0 -- -- 53
2020-06-27 19:00:00 24.1 9 Nordeste 18 Noroeste 0 -- -- 50
2020-06-27 18:00:00 24.9 2 Sur 20 Sur 0 -- -- 48
2020-06-27 17:00:00 25.6 6 Sur 12 Sur 0 -- -- 46
2020-06-27 16:00:00 26.1 5 Sur 24 Sur 0 -- -- 45
2020-06-27 15:00:00 27.1 12 Sur 22 Sur 0 -- -- 42
2020-06-27 14:00:00 26.6 10 Sur 19 Sur 0 -- -- 40
2020-06-27 13:00:00 24.4 5 Sudeste 11 Sur 0 -- -- 45
2020-06-27 12:00:00 21.6 4 Sur 8 Sur 0 -- -- 59
2020-06-27 11:00:00 19 2 Sudeste 5 Sudeste 0 -- -- 66
2020-06-27 10:00:00 16.3 2 Sudeste 5 Este 0 -- -- 77
2020-06-27 09:00:00 11.5 0 Calma 3 Sur 0 -- -- 100
2020-06-27 08:00:00 11 0 Calma 3 Sudeste 0 -- -- 99
2020-06-27 07:00:00 11 0 Calma 3 Sur 0 -- -- 98
2020-06-27 06:00:00 12.4 0 Calma 5 Sur 0 -- -- 90
2020-06-27 05:00:00 13.3 0 Calma 6 Nordeste 0 -- -- 87
2020-06-27 04:00:00 14.6 2 Sudoeste 7 Norte 0 -- -- 83
2020-06-27 03:00:00 15.8 3 Sur 10 Nordeste 0 -- -- 79
2020-06-27 02:00:00 17 5 Norte 10 Nordeste 0 -- -- 72
2020-06-27 01:00:00 18.2 2 Sur 9 Norte 0 -- -- 69
2020-06-27 00:00:00 19.6 2 Norte 10 Sudeste 0 -- -- 62
2020-06-26 23:00:00 20.7 0 Calma 17 Sudeste 0 -- -- 56
2020-06-26 22:00:00 22.4 7 Sur 34 Sur 0 -- -- 47
2020-06-26 21:00:00 23.1 9 Sur 18 Sur 0 -- -- 47
2020-06-26 20:00:00 24.2 7 Sur 25 Sudeste 0 -- -- 45
2020-06-26 19:00:00 25.1 13 Sur 26 Sudeste 0 -- -- 43
2020-06-26 18:00:00 26.9 11 Sur 29 Sur 0 -- -- 43
2020-06-26 17:00:00 26.9 10 Sur 42 Sudeste 0 -- -- 39
2020-06-26 16:00:00 27.3 16 Sur 31 Sur 0 -- -- 37
2020-06-26 15:00:00 27.3 13 Sur 28 Sudeste 0 -- -- 40
2020-06-26 14:00:00 26.7 9 Sur 28 Sudeste 0 -- -- 46
2020-06-26 13:00:00 22.8 2 Sudoeste 9 Sur 0 -- -- 68
2020-06-26 12:00:00 20.5 3 Sudeste 7 Sur 0 -- -- 68
2020-06-26 11:00:00 18.1 2 Nordeste 4 Este 0 -- -- 82
2020-06-26 10:00:00 15.7 0 Calma 6 Norte 0 -- -- 98
2020-06-26 09:00:00 14.3 0 Calma 3 Sudeste 0 -- -- 100
2020-06-26 08:00:00 13.7 0 Calma 8 Sur 0 -- -- 100
2020-06-26 07:00:00 13.7 2 Oeste 7 Sudeste 0.2 -- -- 100
2020-06-26 06:00:00 14.3 2 Noroeste 8 Nordeste 0 -- -- 97
2020-06-26 05:00:00 14.5 0 Calma 6 Sudeste 0.2 -- -- 97
2020-06-26 04:00:00 14.8 3 Noroeste 10 Nordeste 0 -- -- 96
2020-06-26 03:00:00 14.9 3 Este 8 Sudoeste 0.2 -- -- 97
2020-06-26 02:00:00 15 0 Calma 11 Este 0.2 -- -- 96
2020-06-26 01:00:00 15.4 3 Sudoeste 12 Noroeste 0.6 -- -- 95
2020-06-26 00:00:00 15.8 3 Norte 12 Nordeste 3.4 -- -- 95
2020-06-25 23:00:00 16.3 5 Este 9 Nordeste 2.6 -- -- 95
2020-06-25 22:00:00 16.6 4 Sur 7 Sur 1.8 -- -- 94
2020-06-25 21:00:00 17.3 2 Sudoeste 10 Este 1 -- -- 92
2020-06-25 20:00:00 18.1 3 Norte 16 Sudeste 0 -- -- 88
2020-06-25 19:00:00 19.1 6 Oeste 13 Sur 0 -- -- 86
2020-06-25 18:00:00 20 6 Sudeste 17 Sudeste 0 -- -- 78
2020-06-25 17:00:00 19.6 4 Noroeste 17 Sudeste 2.6 -- -- 83
2020-06-25 16:00:00 22.5 2 Sudoeste 10 Este 1.2 -- -- 72
2020-06-25 15:00:00 26.6 4 Sudoeste 10 Oeste 0 -- -- 53
2020-06-25 14:00:00 24.3 4 Sudoeste 9 Sudoeste 0 -- -- 61
2020-06-25 13:00:00 22.4 4 Sur 9 Sur 0 -- -- 59
2020-06-25 12:00:00 20.2 3 Sudeste 5 Sur 0 -- -- 61
2020-06-25 11:00:00 17.5 3 Sudeste 5 Este 0 -- -- 71
2020-06-25 10:00:00 14.8 2 Sudeste 4 Sudeste 0 -- -- 93
2020-06-25 09:00:00 10.8 0 Calma 3 Sur 0 -- -- 100
2020-06-25 08:00:00 10.2 0 Calma 3 Sur 0 -- -- 100
2020-06-25 07:00:00 10 0 Calma 8 Noroeste 0.2 -- -- 99
2020-06-25 06:00:00 10.5 0 Calma 4 Norte 0 -- -- 96
2020-06-25 05:00:00 11.1 0 Calma 7 Norte 0 -- -- 96
2020-06-25 04:00:00 11.5 0 Calma 6 Nordeste 0 -- -- 96
2020-06-25 03:00:00 12.6 0 Calma 3 Norte 0 -- -- 96
2020-06-25 02:00:00 13.3 0 Calma 4 Oeste 0 -- -- 94
2020-06-25 01:00:00 13.7 0 Calma 3 Sudoeste 0 -- -- 95
2020-06-25 00:00:00 14.7 0 Calma 5 Nordeste 0 -- -- 94
2020-06-24 23:00:00 15.6 4 Nordeste 7 Norte 0 -- -- 92
2020-06-24 22:00:00 15.5 0 Calma 6 Sudeste 0 -- -- 93
2020-06-24 21:00:00 16.1 5 Sudeste 15 Este 0.4 -- -- 89
2020-06-24 20:00:00 16.8 3 Sudeste 21 Sudeste 2 -- -- 86
2020-06-24 19:00:00 18.8 13 Sudeste 26 Sudeste 1 -- -- 76
2020-06-24 18:00:00 25.2 3 Norte 22 Sur 0 -- -- 50
2020-06-24 17:00:00 27.1 6 Sur 23 Noroeste 0 -- -- 44
2020-06-24 16:00:00 31.6 8 Norte 22 Oeste 0 -- -- 28
2020-06-24 15:00:00 30.7 6 Norte 14 Sur 0 -- -- 24
2020-06-24 14:00:00 28.9 5 Sur 8 Sur 0 -- -- 32
2020-06-24 13:00:00 26.1 2 Sudoeste 10 Sudeste 0 -- -- 50
2020-06-24 12:00:00 23.7 0 Calma 7 Sudeste 0 -- -- 61
2020-06-24 11:00:00 20.9 2 Sur 5 Sudeste 0 -- -- 70
2020-06-24 10:00:00 18.1 3 Sudeste 5 Sudeste 0 -- -- 84
2020-06-24 09:00:00 12.9 0 Calma 4 Sudeste 0 -- -- 100
2020-06-24 08:00:00 12.2 0 Calma 3 Sudoeste 0 -- -- 100
2020-06-24 07:00:00 12.2 0 Calma 4 Sur 0.2 -- -- 99
2020-06-24 06:00:00 12.9 2 Sur 4 Sudoeste 0 -- -- 94
2020-06-24 05:00:00 13.6 0 Calma 3 Sur 0 -- -- 93
2020-06-24 04:00:00 14.2 0 Calma 4 Sur 0 -- -- 92
2020-06-24 03:00:00 15.1 0 Calma 2 Sudoeste 0 -- -- 90
2020-06-24 02:00:00 16.1 2 Sur 4 Norte 0 -- -- 86
2020-06-24 01:00:00 17.1 0 Calma 4 Sur 0 -- -- 85
2020-06-24 00:00:00 18.7 0 Calma 8 Sur 0 -- -- 79
2020-06-23 23:00:00 21.3 3 Norte 9 Sur 0 -- -- 70
2020-06-23 22:00:00 23 4 Norte 11 Norte 0 -- -- 63
2020-06-23 21:00:00 25.1 3 Norte 7 Sudeste 0 -- -- 57
2020-06-23 20:00:00 27.2 2 Sudeste 14 Sudoeste 0 -- -- 47
2020-06-23 19:00:00 28.9 6 Sur 19 Sudoeste 0 -- -- 46
2020-06-23 18:00:00 29.1 9 Sur 18 Sudeste 0 -- -- 44
2020-06-23 17:00:00 29.9 8 Sur 23 Sur 0 -- -- 43
2020-06-23 16:00:00 29.4 9 Sur 21 Sudoeste 0 -- -- 42
2020-06-23 15:00:00 29 8 Sur 19 Sur 0 -- -- 42
2020-06-23 14:00:00 26.9 4 Sudeste 13 Sur 0 -- -- 44
2020-06-23 13:00:00 24.1 2 Sudeste 6 Sur 0 -- -- 49
2020-06-23 12:00:00 21.4 2 Este 8 Sudeste 0 -- -- 56
2020-06-23 11:00:00 18.8 2 Sudeste 6 Sudeste 0 -- -- 57
2020-06-23 10:00:00 15.5 0 Calma 0 Calma 0 -- -- 73
2020-06-23 09:00:00 9.6 0 Calma 0 Calma 0 -- -- 100
2020-06-23 08:00:00 9 0 Calma 0 Calma 0 -- -- 99
2020-06-23 07:00:00 9.3 0 Calma 0 Calma 0.2 -- -- 98
2020-06-23 06:00:00 10.2 0 Calma 0 Calma 0 -- -- 92
2020-06-23 05:00:00 10.7 0 Calma 0 Calma 0 -- -- 90
2020-06-23 04:00:00 11.6 0 Calma 0 Calma 0 -- -- 88
2020-06-23 03:00:00 12.6 0 Calma 2 Noroeste 0 -- -- 84
2020-06-23 02:00:00 13.7 0 Calma 3 Sur 0 -- -- 79
2020-06-23 01:00:00 15.4 0 Calma 4 Oeste 0 -- -- 72
2020-06-23 00:00:00 17.6 2 Sur 6 Nordeste 0 -- -- 64
2020-06-22 23:00:00 21.4 3 Nordeste 15 Nordeste 0 -- -- 52
2020-06-22 22:00:00 23 5 Nordeste 15 Este 0 -- -- 45
2020-06-22 21:00:00 24.6 5 Norte 23 Noroeste 0 -- -- 44
2020-06-22 20:00:00 28.2 8 Norte 21 Norte 0 -- -- 35
2020-06-22 19:00:00 29.8 8 Norte 20 Noroeste 0 -- -- 30
2020-06-22 18:00:00 30.4 9 Norte 26 Noroeste 0 -- -- 25
2020-06-22 17:00:00 30.1 12 Norte 27 Noroeste 0 -- -- 24
2020-06-22 16:00:00 29.8 11 Noroeste 23 Norte 0 -- -- 29
2020-06-22 15:00:00 29.1 10 Noroeste 26 Norte 0 -- -- 28
2020-06-22 14:00:00 28 11 Norte 23 Norte 0 -- -- 29
2020-06-22 13:00:00 26.3 5 Sudoeste 17 Sudeste 0 -- -- 29
2020-06-22 12:00:00 23.7 6 Sur 12 Sudeste 0 -- -- 44
2020-06-22 11:00:00 20.2 3 Este 6 Este 0 -- -- 61
2020-06-22 10:00:00 16.9 2 Este 5 Este 0 -- -- 67
2020-06-22 09:00:00 10.9 0 Calma 7 Sur 0 -- -- 95
2020-06-22 08:00:00 10.3 0 Calma 4 Sur 0 -- -- 96
2020-06-22 07:00:00 10.5 0 Calma 5 Este 0.2 -- -- 97
2020-06-22 06:00:00 13.1 0 Calma 11 Sudeste 0 -- -- 74
2020-06-22 05:00:00 15.7 5 Nordeste 17 Nordeste 0 -- -- 64
2020-06-22 04:00:00 13 2 Sur 5 Sudoeste 0 -- -- 78
2020-06-22 03:00:00 14.1 0 Calma 4 Oeste 0 -- -- 73
2020-06-22 02:00:00 15.7 0 Calma 10 Nordeste 0 -- -- 65
2020-06-22 01:00:00 17.1 4 Nordeste 12 Nordeste 0 -- -- 60
2020-06-22 00:00:00 18 4 Nordeste 12 Nordeste 0 -- -- 57
2020-06-21 23:00:00 18.9 4 Nordeste 12 Noroeste 0 -- -- 56
2020-06-21 22:00:00 20.6 5 Norte 26 Noroeste 0 -- -- 48
2020-06-21 21:00:00 21.8 10 Noroeste 28 Noroeste 0 -- -- 45
2020-06-21 20:00:00 24.3 12 Noroeste 27 Noroeste 0 -- -- 40
2020-06-21 19:00:00 26.1 9 Norte 26 Noroeste 0 -- -- 38
2020-06-21 18:00:00 26.7 13 Noroeste 25 Noroeste 0 -- -- 37
2020-06-21 17:00:00 27.6 9 Norte 22 Noroeste 0 -- -- 34
2020-06-21 16:00:00 27.7 10 Norte 22 Norte 0 -- -- 33
2020-06-21 15:00:00 27.6 6 Noroeste 24 Oeste 0 -- -- 29
2020-06-21 14:00:00 26.4 6 Nordeste 21 Noroeste 0 -- -- 28
2020-06-21 13:00:00 25.7 10 Norte 21 Norte 0 -- -- 35
2020-06-21 12:00:00 21.6 3 Sudeste 8 Sur 0 -- -- 53
2020-06-21 11:00:00 18.6 3 Sudeste 6 Sudoeste 0 -- -- 61
2020-06-21 10:00:00 14.9 0 Calma 5 Este 0 -- -- 68
2020-06-21 09:00:00 9.7 0 Calma 4 Oeste 0 -- -- 100
2020-06-21 08:00:00 8.4 0 Calma 4 Sudeste 0 -- -- 100
2020-06-21 07:00:00 8 0 Calma 3 Sur 0.2 -- -- 99
2020-06-21 06:00:00 8.7 0 Calma 3 Oeste 0 -- -- 94
2020-06-21 05:00:00 9.6 0 Calma 5 Sudeste 0 -- -- 93
2020-06-21 04:00:00 10.5 0 Calma 4 Oeste 0 -- -- 92
2020-06-21 03:00:00 11.3 0 Calma 5 Oeste 0 -- -- 90
2020-06-21 02:00:00 12.5 0 Calma 5 Sur 0 -- -- 87
2020-06-21 01:00:00 13.6 0 Calma 3 Noroeste 0 -- -- 84
2020-06-21 00:00:00 15.3 0 Calma 4 Sur 0 -- -- 77
2020-06-20 23:00:00 17.5 2 Sur 12 Norte 0 -- -- 69
2020-06-20 22:00:00 19.7 6 Nordeste 21 Nordeste 0 -- -- 59
2020-06-20 21:00:00 20.5 10 Nordeste 23 Noroeste 0 -- -- 58
2020-06-20 20:00:00 22.4 10 Norte 27 Norte 0 -- -- 52
2020-06-20 19:00:00 22.9 13 Norte 33 Norte 0 -- -- 54
2020-06-20 18:00:00 22.6 8 Norte 26 Norte 0 -- -- 54
2020-06-20 17:00:00 24.7 3 Sur 16 Sur 0 -- -- 55
2020-06-20 16:00:00 25 9 Sur 18 Sudoeste 0 -- -- 50
2020-06-20 15:00:00 24.5 8 Sur 24 Sur 0 -- -- 54
2020-06-20 14:00:00 24.8 10 Sur 25 Sur 0 -- -- 46
2020-06-20 13:00:00 23.6 8 Sur 17 Sudoeste 0 -- -- 49
2020-06-20 12:00:00 20.1 4 Sudeste 8 Sudeste 0 -- -- 57
2020-06-20 11:00:00 17.4 3 Sur 6 Sur 0 -- -- 67
2020-06-20 10:00:00 14 0 Calma 4 Este 0 -- -- 88
2020-06-20 09:00:00 8.9 0 Calma 2 Nordeste 0 -- -- 100
2020-06-20 08:00:00 8 0 Calma 3 Sur 0 -- -- 100
2020-06-20 07:00:00 8 0 Calma 5 Sur 0.2 -- -- 98
2020-06-20 06:00:00 8.5 0 Calma 0 Calma 0 -- -- 95
2020-06-20 05:00:00 9.1 0 Calma 4 Norte 0 -- -- 94
2020-06-20 04:00:00 10 0 Calma 4 Noroeste 0 -- -- 93
2020-06-20 03:00:00 10.5 0 Calma 4 Sur 0 -- -- 92
2020-06-20 02:00:00 11.2 0 Calma 4 Sur 0 -- -- 91
2020-06-20 01:00:00 12.1 0 Calma 4 Sudoeste 0 -- -- 88
2020-06-20 00:00:00 13.8 0 Calma 3 Sudeste 0 -- -- 82
2020-06-19 23:00:00 16 0 Calma 12 Nordeste 0 -- -- 74
2020-06-19 22:00:00 18.1 8 Nordeste 16 Norte 0 -- -- 62
2020-06-19 21:00:00 18.9 9 Nordeste 21 Nordeste 0 -- -- 60
2020-06-19 20:00:00 19.9 10 Nordeste 19 Nordeste 0 -- -- 59
2020-06-19 19:00:00 20.8 10 Nordeste 20 Nordeste 0 -- -- 55
2020-06-19 18:00:00 22 8 Norte 19 Norte 0 -- -- 50
2020-06-19 17:00:00 22.5 5 Sudoeste 17 Sudoeste 0 -- -- 54
2020-06-19 16:00:00 21.7 6 Sur 21 Sur 0 -- -- 56
2020-06-19 15:00:00 22.2 8 Sur 22 Sur 0 -- -- 55
2020-06-19 14:00:00 21 10 Sur 18 Sudoeste 0 -- -- 55
2020-06-19 13:00:00 18.7 8 Sur 15 Sur 0 -- -- 65
2020-06-19 12:00:00 17.2 6 Sudeste 13 Este 0 -- -- 70
2020-06-19 11:00:00 16 3 Este 9 Sur 0 -- -- 73
2020-06-19 10:00:00 15.3 4 Sur 6 Sudoeste 0 -- -- 71
2020-06-19 09:00:00 11.2 2 Sudeste 4 Sudeste 0 -- -- 96
2020-06-19 08:00:00 10.4 0 Calma 4 Sudeste 0 -- -- 99
2020-06-19 07:00:00 10.1 0 Calma 5 Sudeste 0.2 -- -- 98
2020-06-19 06:00:00 10.5 0 Calma 3 Sudeste 0 -- -- 92
2020-06-19 05:00:00 10.4 0 Calma 5 Oeste 0 -- -- 91
2020-06-19 04:00:00 10.5 0 Calma 0 Calma 0 -- -- 90
2020-06-19 03:00:00 11.3 0 Calma 0 Calma 0 -- -- 87
2020-06-19 02:00:00 11.9 0 Calma 3 Oeste 0 -- -- 84
2020-06-19 01:00:00 12.5 2 Sur 4 Noroeste 0 -- -- 81
2020-06-19 00:00:00 13.3 0 Calma 6 Nordeste 0 -- -- 74
2020-06-18 23:00:00 15.2 3 Nordeste 15 Nordeste 0 -- -- 60
2020-06-18 22:00:00 15.7 7 Nordeste 19 Nordeste 0 -- -- 59
2020-06-18 21:00:00 17.1 6 Nordeste 21 Norte 0 -- -- 55
2020-06-18 20:00:00 19 6 Norte 14 Noroeste 0 -- -- 51
2020-06-18 19:00:00 18.9 3 Sur 10 Sur 0 -- -- 56
2020-06-18 18:00:00 18.6 4 Sudeste 22 Sudoeste 0 -- -- 54
2020-06-18 17:00:00 18.1 9 Sur 22 Sur 0 -- -- 58
2020-06-18 16:00:00 18.8 4 Sudoeste 27 Sur 0 -- -- 55
2020-06-18 15:00:00 18 9 Sur 24 Sur 0 -- -- 55
2020-06-18 14:00:00 19.9 10 Sudoeste 27 Sur 0 -- -- 50
2020-06-18 13:00:00 17.8 6 Sudoeste 21 Sur 0 -- -- 57
2020-06-18 12:00:00 15.8 5 Este 12 Sudeste 0 -- -- 62
2020-06-18 11:00:00 13.9 4 Sur 9 Sudoeste 0 -- -- 74
2020-06-18 10:00:00 11.4 3 Sudeste 8 Sur 0.2 -- -- 99
2020-06-18 09:00:00 8.6 2 Nordeste 5 Sudoeste 0.2 -- -- 100
2020-06-18 08:00:00 8.4 0 Calma 4 Sudeste 0 -- -- 100
2020-06-18 07:00:00 8.3 0 Calma 4 Oeste 0.2 -- -- 99
2020-06-18 06:00:00 8.5 0 Calma 6 Oeste 0 -- -- 93
2020-06-18 05:00:00 8.8 0 Calma 5 Sudeste 0 -- -- 93
2020-06-18 04:00:00 9.5 0 Calma 5 Oeste 0 -- -- 91
2020-06-18 03:00:00 9.5 0 Calma 4 Oeste 0 -- -- 89
2020-06-18 02:00:00 9.8 0 Calma 5 Sudoeste 0 -- -- 88
2020-06-18 01:00:00 10 0 Calma 2 Sudeste 0 -- -- 84
2020-06-18 00:00:00 11.9 0 Calma 13 Norte 0 -- -- 76
2020-06-17 23:00:00 13.9 6 Nordeste 17 Nordeste 0 -- -- 63
2020-06-17 22:00:00 14.4 8 Nordeste 19 Nordeste 0 -- -- 62
2020-06-17 21:00:00 15.4 4 Nordeste 17 Norte 0 -- -- 59
2020-06-17 20:00:00 16.1 5 Norte 26 Norte 0 -- -- 56
2020-06-17 19:00:00 17.4 12 Norte 31 Norte 0 -- -- 53
2020-06-17 18:00:00 18.1 13 Norte 24 Norte 0 -- -- 52
2020-06-17 17:00:00 19.4 8 Sur 18 Sudoeste 0 -- -- 58
2020-06-17 16:00:00 17.3 3 Sur 13 Sur 0 -- -- 57
2020-06-17 15:00:00 17 4 Sur 15 Sudeste 0 -- -- 70
2020-06-17 14:00:00 15.3 4 Sudeste 24 Sudoeste 0.6 -- -- 67
2020-06-17 13:00:00 15.2 3 Sudeste 10 Sudoeste 0 -- -- 68
2020-06-17 12:00:00 14.1 2 Este 9 Sur 0 -- -- 76
2020-06-17 11:00:00 11.5 2 Norte 5 Este 0.2 -- -- 86
2020-06-17 10:00:00 10.2 0 Calma 8 Este 0 -- -- 98
2020-06-17 09:00:00 7.8 0 Calma 4 Oeste 0 -- -- 100
2020-06-17 08:00:00 7.4 0 Calma 3 Norte 0 -- -- 100
2020-06-17 07:00:00 7 0 Calma 4 Sur 0.4 -- -- 100
2020-06-17 06:00:00 6.8 0 Calma 3 Sur 0 -- -- 99
2020-06-17 05:00:00 6.8 0 Calma 4 Sudeste 0 -- -- 99
2020-06-17 04:00:00 6.8 0 Calma 4 Noroeste 0 -- -- 98
2020-06-17 03:00:00 7.4 0 Calma 5 Noroeste 0 -- -- 97
2020-06-17 02:00:00 8.1 0 Calma 4 Sudoeste 0 -- -- 97
2020-06-17 01:00:00 8.6 2 Sur 5 Oeste 0 -- -- 96
2020-06-17 00:00:00 9.4 0 Calma 3 Sudoeste 0 -- -- 95
2020-06-16 23:00:00 10.8 0 Calma 7 Sudeste 0 -- -- 94
2020-06-16 22:00:00 11.5 2 Sur 5 Sudeste 0 -- -- 92
2020-06-16 21:00:00 12.3 0 Calma 5 Norte 0 -- -- 89
2020-06-16 20:00:00 13.7 3 Sudeste 11 Nordeste 0 -- -- 80
2020-06-16 19:00:00 13.9 3 Sur 8 Noroeste 0.6 -- -- 86
2020-06-16 18:00:00 12.7 0 Calma 10 Sudeste 0.6 -- -- 88
2020-06-16 17:00:00 13.1 6 Sudeste 13 Sudeste 0.6 -- -- 89
2020-06-16 16:00:00 13.3 0 Calma 13 Nordeste 0.8 -- -- 88
2020-06-16 15:00:00 12.6 8 Norte 25 Norte 2.8 -- -- 88
2020-06-16 14:00:00 15 3 Este 6 Sudeste 0.2 -- -- 84
2020-06-16 13:00:00 14.6 3 Sur 6 Sur 0.2 -- -- 89
2020-06-16 12:00:00 14.1 4 Nordeste 9 Norte 0 -- -- 87
2020-06-16 11:00:00 13.2 0 Calma 14 Este 0.8 -- -- 91
2020-06-16 10:00:00 12.8 3 Sudoeste 7 Sur 0 -- -- 98
2020-06-16 09:00:00 11.6 0 Calma 4 Sur 0.2 -- -- 100
2020-06-16 08:00:00 10.5 0 Calma 3 Oeste 0.6 -- -- 100
2020-06-16 07:00:00 10.8 0 Calma 5 Oeste 0.4 -- -- 99
2020-06-16 06:00:00 10.8 0 Calma 4 Sudoeste 0 -- -- 93
2020-06-16 05:00:00 11.2 0 Calma 6 Sur 0 -- -- 91
2020-06-16 04:00:00 11 0 Calma 5 Sur 0 -- -- 90
2020-06-16 03:00:00 11.2 2 Sudoeste 6 Sur 0 -- -- 88
2020-06-16 02:00:00 11.3 0 Calma 0 Calma 0 -- -- 86
2020-06-16 01:00:00 11.8 0 Calma 3 Este 0 -- -- 83
2020-06-16 00:00:00 13 0 Calma 4 Sudoeste 0 -- -- 77
2020-06-15 23:00:00 15.5 2 Sudeste 16 Nordeste 0 -- -- 64
2020-06-15 22:00:00 16.2 5 Nordeste 18 Nordeste 0 -- -- 60
2020-06-15 21:00:00 17.3 5 Nordeste 20 Noroeste 0 -- -- 58
2020-06-15 20:00:00 18.2 11 Norte 24 Norte 0 -- -- 54
2020-06-15 19:00:00 18.6 10 Norte 26 Norte 0 -- -- 55
2020-06-15 18:00:00 20.3 12 Noroeste 21 Noroeste 0 -- -- 51
2020-06-15 17:00:00 19.9 12 Norte 26 Noroeste 0 -- -- 53
2020-06-15 16:00:00 21.9 10 Norte 16 Noroeste 0 -- -- 47
2020-06-15 15:00:00 21 5 Sur 21 Sur 0 -- -- 50
2020-06-15 14:00:00 20.6 5 Sur 19 Sur 0 -- -- 54
2020-06-15 13:00:00 19.1 2 Este 9 Sudeste 0 -- -- 54
2020-06-15 12:00:00 18 3 Sudeste 9 Sudeste 0 -- -- 61
2020-06-15 11:00:00 16.4 3 Sudoeste 8 Sur 0 -- -- 67
2020-06-15 10:00:00 13.9 2 Sudoeste 6 Norte 0 -- -- 77
2020-06-15 09:00:00 10.8 0 Calma 3 Noroeste 0 -- -- 99
2020-06-15 08:00:00 9.5 0 Calma 4 Sur 0 -- -- 100
2020-06-15 07:00:00 9 0 Calma 5 Noroeste 0.2 -- -- 99
2020-06-15 06:00:00 9.8 0 Calma 5 Sur 0 -- -- 91
2020-06-15 05:00:00 10.8 2 Sudoeste 4 Sudeste 0 -- -- 89
2020-06-15 04:00:00 11.9 0 Calma 3 Norte 0 -- -- 84
2020-06-15 03:00:00 13.5 2 Noroeste 10 Este 0 -- -- 76
2020-06-15 02:00:00 14.1 4 Nordeste 14 Nordeste 0 -- -- 71
2020-06-15 01:00:00 14 6 Nordeste 13 Nordeste 0 -- -- 73
2020-06-15 00:00:00 13.9 0 Calma 4 Sur 0 -- -- 80
2020-06-14 23:00:00 14.6 0 Calma 10 Nordeste 0 -- -- 75
2020-06-14 22:00:00 16 3 Nordeste 11 Norte 0 -- -- 62
2020-06-14 21:00:00 16.3 6 Nordeste 19 Nordeste 0 -- -- 60
2020-06-14 20:00:00 16.7 9 Nordeste 17 Nordeste 0 -- -- 59
2020-06-14 19:00:00 17.2 10 Nordeste 22 Norte 0 -- -- 58
2020-06-14 18:00:00 19.3 3 Sur 13 Sudeste 0 -- -- 49
2020-06-14 17:00:00 19 7 Sudeste 21 Sudeste 0 -- -- 46
2020-06-14 16:00:00 20.2 9 Sur 21 Sudoeste 0 -- -- 48
2020-06-14 15:00:00 20.1 7 Sur 18 Sudeste 0 -- -- 45
2020-06-14 14:00:00 18.1 3 Sur 14 Sudoeste 0 -- -- 57
2020-06-14 13:00:00 15.9 2 Sudeste 6 Oeste 0 -- -- 68
2020-06-14 12:00:00 14.4 2 Sur 6 Sudeste 0 -- -- 72
2020-06-14 11:00:00 12.3 0 Calma 6 Sur 0 -- -- 76
2020-06-14 10:00:00 9.9 3 Sur 5 Sudeste 0 -- -- 100
2020-06-14 09:00:00 7.4 0 Calma 4 Sur 0 -- -- 100
2020-06-14 08:00:00 6.1 0 Calma 4 Sudoeste 0 -- -- 100
2020-06-14 07:00:00 5.4 0 Calma 4 Sur 0.4 -- -- 100
2020-06-14 06:00:00 5.7 0 Calma 3 Sudoeste 0 -- -- 96
2020-06-14 05:00:00 6.4 0 Calma 7 Norte 0 -- -- 96
2020-06-14 04:00:00 7.2 0 Calma 4 Sur 0 -- -- 95
2020-06-14 03:00:00 8.3 2 Noroeste 6 Norte 0 -- -- 94
2020-06-14 02:00:00 9.2 0 Calma 3 Noroeste 0 -- -- 94
2020-06-14 01:00:00 10 0 Calma 3 Oeste 0 -- -- 93
2020-06-14 00:00:00 10.7 3 Noroeste 5 Norte 0 -- -- 91
2020-06-13 23:00:00 11.5 0 Calma 5 Sudoeste 0.2 -- -- 89
2020-06-13 22:00:00 12.1 2 Sudeste 7 Norte 1 -- -- 84
2020-06-13 21:00:00 14 5 Norte 21 Norte 0 -- -- 65
2020-06-13 20:00:00 15.5 6 Noroeste 23 Noroeste 0 -- -- 55
2020-06-13 19:00:00 16.7 9 Noroeste 27 Norte 0 -- -- 54
2020-06-13 18:00:00 17.5 9 Noroeste 25 Oeste 0 -- -- 52
2020-06-13 17:00:00 15.9 14 Norte 33 Noroeste 0.2 -- -- 59
2020-06-13 16:00:00 16.2 13 Norte 26 Noroeste 0 -- -- 65
2020-06-13 15:00:00 18.8 9 Noroeste 21 Norte 0 -- -- 46
2020-06-13 14:00:00 18.6 7 Sur 15 Sudeste 0 -- -- 52
2020-06-13 13:00:00 17.9 4 Nordeste 8 Este 0 -- -- 43
2020-06-13 12:00:00 16.1 0 Calma 8 Sur 0 -- -- 49
2020-06-13 11:00:00 14.5 4 Sur 8 Sudeste 0 -- -- 66
2020-06-13 10:00:00 12.1 2 Sudoeste 6 Oeste 0 -- -- 80
2020-06-13 09:00:00 7.7 0 Calma 5 Norte 0 -- -- 100
2020-06-13 08:00:00 7.2 0 Calma 9 Norte 0 -- -- 100
2020-06-13 07:00:00 7.3 2 Norte 6 Norte 0.4 -- -- 99
2020-06-13 06:00:00 7.9 0 Calma 6 Sur 0 -- -- 92
2020-06-13 05:00:00 8.8 0 Calma 8 Sudoeste 0 -- -- 88
2020-06-13 04:00:00 9.2 0 Calma 6 Sur 0 -- -- 85
2020-06-13 03:00:00 10.3 2 Sudoeste 5 Oeste 0 -- -- 80
2020-06-13 02:00:00 10.8 4 Sudeste 14 Sudeste 0 -- -- 74
2020-06-13 01:00:00 11.5 0 Calma 7 Sur 0 -- -- 76
2020-06-13 00:00:00 11.2 0 Calma 6 Este 0 -- -- 76
2020-06-12 23:00:00 11.8 3 Sudoeste 8 Sur 0 -- -- 75
2020-06-12 22:00:00 12.6 2 Sur 4 Sur 0 -- -- 66
2020-06-12 21:00:00 15 0 Calma 13 Este 0 -- -- 54
2020-06-12 20:00:00 15.6 4 Sudeste 16 Sur 0 -- -- 51
2020-06-12 19:00:00 16.1 5 Sur 27 Sudoeste 0 -- -- 49
2020-06-12 18:00:00 16.8 8 Sur 25 Sudeste 0 -- -- 47
2020-06-12 17:00:00 16.5 12 Sur 28 Sudeste 0 -- -- 48
2020-06-12 16:00:00 16.8 11 Sur 31 Sudeste 0 -- -- 45
2020-06-12 15:00:00 16.6 12 Sur 33 Sur 0 -- -- 48
2020-06-12 14:00:00 16.6 15 Sur 39 Sudeste 0 -- -- 46
2020-06-12 13:00:00 17.5 16 Sur 35 Sur 0 -- -- 47
2020-06-12 12:00:00 16.1 18 Sudeste 37 Sudeste 0 -- -- 49
2020-06-12 11:00:00 15.8 17 Sudeste 36 Sur 0 -- -- 55
2020-06-12 10:00:00 13.8 13 Sudeste 27 Sudeste 0 -- -- 64
2020-06-12 09:00:00 9.2 2 Sudeste 13 Este 0 -- -- 100
2020-06-12 08:00:00 8.9 4 Este 9 Este 0 -- -- 100
2020-06-12 07:00:00 9.3 3 Sudeste 6 Sudeste 0.6 -- -- 100
2020-06-12 06:00:00 10 0 Calma 7 Noroeste 0 -- -- 97
2020-06-12 05:00:00 10.4 2 Sudeste 9 Sudeste 0 -- -- 97
2020-06-12 04:00:00 10.3 2 Norte 13 Sudeste 0.8 -- -- 98
2020-06-12 03:00:00 10.2 3 Sur 7 Noroeste 6 -- -- 98
2020-06-12 02:00:00 10.3 0 Calma 5 Sudoeste 0.4 -- -- 96
2020-06-12 01:00:00 10.6 2 Nordeste 7 Sudeste 0.8 -- -- 94
2020-06-12 00:00:00 11.5 5 Este 17 Este 10.4 -- -- 84
2020-06-11 23:00:00 12.2 3 Norte 7 Noroeste 3.8 -- -- 97
2020-06-11 22:00:00 12.2 2 Sur 5 Sudeste 0.6 -- -- 95
2020-06-11 21:00:00 12.6 0 Calma 5 Sur 0.6 -- -- 94
2020-06-11 20:00:00 13 0 Calma 12 Sudeste 0 -- -- 89
2020-06-11 19:00:00 13.2 3 Sur 18 Este 0.2 -- -- 86
2020-06-11 18:00:00 13.3 10 Este 18 Sudeste 0 -- -- 84
2020-06-11 17:00:00 15.1 6 Sur 19 Sudeste 0 -- -- 76
2020-06-11 16:00:00 13.7 6 Sudeste 13 Sudoeste 0 -- -- 77
2020-06-11 15:00:00 13.1 8 Este 13 Sudeste 0 -- -- 81
2020-06-11 14:00:00 12.1 0 Calma 5 Sudeste 0 -- -- 89
2020-06-11 13:00:00 10.6 2 Sur 5 Sur 0 -- -- 95
2020-06-11 12:00:00 9.9 0 Calma 5 Sudeste 0 -- -- 99
2020-06-11 11:00:00 9.7 0 Calma 3 Sur 0 -- -- 100
2020-06-11 10:00:00 9.3 0 Calma 3 Sudoeste 0 -- -- 100
2020-06-11 09:00:00 9.1 0 Calma 3 Sur 0 -- -- 100
2020-06-11 08:00:00 8.8 0 Calma 3 Sur 0 -- -- 100
2020-06-11 07:00:00 9 0 Calma 3 Noroeste 0.6 -- -- 99
2020-06-11 06:00:00 8.9 0 Calma 3 Sur 0 -- -- 96
2020-06-11 05:00:00 9 0 Calma 5 Norte 0 -- -- 96
2020-06-11 04:00:00 9 2 Norte 5 Noroeste 0 -- -- 95
2020-06-11 03:00:00 9.5 0 Calma 2 Sur 0 -- -- 95
2020-06-11 02:00:00 9.8 0 Calma 3 Sudoeste 0 -- -- 94
2020-06-11 01:00:00 9.9 0 Calma 4 Noroeste 0 -- -- 92
2020-06-11 00:00:00 10 0 Calma 3 Sudoeste 0 -- -- 94